This is the latest recevied weather packets stored in our database for station/object SP6RGZ-1. If no packets are shown the sender has not sent any weather packets the latest 10 day(s).
| Time | Temp. | Humidity | Pressure | Rain* | Wind** | Luminosity | Snow |
|---|---|---|---|---|---|---|---|
| 1787809502 | 17.78° C | 69% | 1002.2 hPa | - | - | - | - |
| 1787808603 | 17.78° C | 71% | 1002.1 hPa | - | - | - | - |
| 1787807702 | 17.22° C | 73% | 1002.1 hPa | - | - | - | - |
| 1787806802 | 16.67° C | 75% | 1002.1 hPa | - | - | - | - |
| 1787805903 | 16.11° C | 78% | 1002.2 hPa | - | - | - | - |
| 1787805002 | 15° C | 82% | 1002.1 hPa | - | - | - | - |
| 1787804102 | 14.44° C | 85% | 1002 hPa | - | - | - | - |
| 1787803202 | 14.44° C | 85% | 1002 hPa | - | - | - | - |
| 1787802302 | 15° C | 85% | 1002.1 hPa | - | - | - | - |
| 1787801402 | 15° C | 85% | 1002.1 hPa | - | - | - | - |
| 1787800502 | 15° C | 85% | 1002.1 hPa | - | - | - | - |
| 1787799603 | 15° C | 84% | 1002 hPa | - | - | - | - |
| 1787798702 | 15° C | 84% | 1002 hPa | - | - | - | - |
| 1787797802 | 15° C | 84% | 1002 hPa | - | - | - | - |
| 1787796902 | 15° C | 84% | 1002 hPa | - | - | - | - |
| 1787796002 | 15.56° C | 84% | 1002 hPa | - | - | - | - |
| 1787795102 | 15.56° C | 83% | 1002.1 hPa | - | - | - | - |
| 1787794202 | 16.11° C | 82% | 1002.1 hPa | - | - | - | - |
| 1787793302 | 16.11° C | 82% | 1002.1 hPa | - | - | - | - |
| 1787792402 | 16.11° C | 81% | 1002.1 hPa | - | - | - | - |
| 1787791502 | 16.11° C | 82% | 1002.2 hPa | - | - | - | - |
| 1787790602 | 16.11° C | 81% | 1002.2 hPa | - | - | - | - |
| 1787789702 | 16.67° C | 81% | 1002.2 hPa | - | - | - | - |
| 1787788802 | 16.67° C | 80% | 1002.2 hPa | - | - | - | - |
| 1787787902 | 16.67° C | 80% | 1002.3 hPa | - | - | - | - |
* Rain since midnight (hover to see other rain measurements)
** Current wind speed in m/s (hover to see current wind gust speed)